createdAt,value
2018-11-01T00:02:02.367Z,4.37
2018-11-01T00:04:30.437Z,5.97
2018-11-01T00:06:58.494Z,6.60
2018-11-01T00:09:26.556Z,5.80
2018-11-01T00:11:54.619Z,20.30
2018-11-01T00:14:22.690Z,4.93
2018-11-01T00:16:50.750Z,3.87
2018-11-01T00:19:18.817Z,5.03
2018-11-01T00:21:46.879Z,4.23
2018-11-01T00:24:14.951Z,4.53
2018-11-01T00:26:43.070Z,6.83
2018-11-01T00:29:11.466Z,5.87
2018-11-01T00:31:39.535Z,6.40
2018-11-01T00:34:07.601Z,4.57
2018-11-01T00:36:35.808Z,4.70
2018-11-01T00:39:05.773Z,4.27
2018-11-01T00:41:33.864Z,3.27
2018-11-01T00:44:02.017Z,4.83
2018-11-01T00:46:30.062Z,6.47
2018-11-01T00:48:58.498Z,3.37
2018-11-01T00:51:26.871Z,4.50
2018-11-01T00:53:54.943Z,3.80
2018-11-01T00:56:23.007Z,4.53
2018-11-01T00:58:51.117Z,4.53
2018-11-01T01:01:19.629Z,4.07
2018-11-01T01:03:48.051Z,3.53
2018-11-01T01:06:16.135Z,3.10
2018-11-01T01:08:44.219Z,4.70
2018-11-01T01:11:12.294Z,4.50
2018-11-01T01:13:40.395Z,6.00
2018-11-01T01:16:08.455Z,4.07
2018-11-01T01:18:36.546Z,3.77
2018-11-01T01:21:04.791Z,6.07
2018-11-01T01:23:32.869Z,4.20
2018-11-01T01:26:00.924Z,6.97
2018-11-01T01:28:28.987Z,4.70
2018-11-01T01:30:57.047Z,4.23
2018-11-01T01:33:25.111Z,3.57
2018-11-01T01:35:53.180Z,5.33
2018-11-01T01:38:21.258Z,4.33
2018-11-01T01:40:49.314Z,4.87
2018-11-01T01:43:17.397Z,4.43
2018-11-01T01:45:45.472Z,3.97
2018-11-01T01:48:13.538Z,6.07
2018-11-01T01:50:41.967Z,3.70
2018-11-01T01:53:10.103Z,4.27
2018-11-01T01:55:38.174Z,4.27
2018-11-01T01:58:06.587Z,4.30
2018-11-01T02:00:34.646Z,5.73
2018-11-01T02:03:03.176Z,6.40
2018-11-01T02:05:31.227Z,4.47
2018-11-01T02:07:59.305Z,3.37
2018-11-01T02:10:27.367Z,4.23
2018-11-01T02:12:55.471Z,3.30
2018-11-01T02:15:23.551Z,3.90
2018-11-01T02:17:51.631Z,4.03
2018-11-01T02:20:20.630Z,2.53
2018-11-01T02:22:48.721Z,2.87
2018-11-01T02:25:16.789Z,3.80
2018-11-01T02:27:50.307Z,4.73
2018-11-01T02:30:19.085Z,2.90
2018-11-01T02:32:47.297Z,4.70
2018-11-01T02:35:16.387Z,5.03
2018-11-01T02:37:44.909Z,4.23
2018-11-01T02:40:13.457Z,4.17
2018-11-01T02:42:42.197Z,2.93
2018-11-01T02:45:11.431Z,3.00
2018-11-01T02:47:39.747Z,4.13
2018-11-01T02:50:08.295Z,3.10
2018-11-01T02:52:36.655Z,2.97
2018-11-01T02:55:05.283Z,6.97
2018-11-01T02:57:33.347Z,5.33
2018-11-01T03:00:01.435Z,5.33
2018-11-01T03:02:29.710Z,3.60
2018-11-01T03:04:57.789Z,3.10
2018-11-01T03:07:25.888Z,7.37
2018-11-01T03:09:53.963Z,5.40
2018-11-01T03:12:22.059Z,2.93
2018-11-01T03:14:50.183Z,3.60
2018-11-01T03:17:18.309Z,4.90
2018-11-01T03:19:46.334Z,5.87
2018-11-01T03:22:14.415Z,3.80
2018-11-01T03:24:42.562Z,3.87
2018-11-01T03:27:10.625Z,3.47
2018-11-01T03:29:38.702Z,4.93
2018-11-01T03:32:06.757Z,4.20
2018-11-01T03:34:34.835Z,3.97
2018-11-01T03:37:03.090Z,3.53
2018-11-01T03:39:31.175Z,4.17
2018-11-01T03:41:59.567Z,3.27
2018-11-01T03:44:27.642Z,3.97
2018-11-01T03:46:55.723Z,3.67
2018-11-01T03:49:23.929Z,2.33
2018-11-01T03:51:52.026Z,5.20
2018-11-01T03:54:20.318Z,4.33
2018-11-01T03:56:48.386Z,2.97
2018-11-01T03:59:16.574Z,4.20
2018-11-01T04:01:44.658Z,4.23
2018-11-01T04:04:12.814Z,2.83
2018-11-01T04:06:41.031Z,2.83
2018-11-01T04:09:11.255Z,5.30
2018-11-01T04:11:40.035Z,5.87
2018-11-01T04:14:08.223Z,2.40
2018-11-01T04:16:36.687Z,3.77
2018-11-01T04:19:05.519Z,4.03
2018-11-01T04:21:33.588Z,2.63
2018-11-01T04:24:01.671Z,3.10
2018-11-01T04:26:29.747Z,6.10
2018-11-01T04:28:58.444Z,2.37
2018-11-01T04:31:26.454Z,6.27
2018-11-01T04:33:54.553Z,4.47
2018-11-01T04:36:23.011Z,4.00
2018-11-01T04:38:51.014Z,3.47
2018-11-01T04:41:19.093Z,4.30
2018-11-01T04:43:47.170Z,2.63
2018-11-01T04:46:15.312Z,2.53
2018-11-01T04:48:44.011Z,5.53
2018-11-01T04:51:12.101Z,3.50
2018-11-01T04:53:40.182Z,2.50
2018-11-01T04:56:08.272Z,2.60
2018-11-01T04:58:36.819Z,4.03
2018-11-01T05:01:05.279Z,4.07
2018-11-01T05:03:33.454Z,3.17
2018-11-01T05:06:01.471Z,2.10
2018-11-01T05:08:29.563Z,4.50
2018-11-01T05:10:57.647Z,4.30
2018-11-01T05:13:25.782Z,2.23
2018-11-01T05:15:53.850Z,2.00
2018-11-01T05:18:21.941Z,5.67
2018-11-01T05:20:49.995Z,6.40
2018-11-01T05:23:18.106Z,3.87
2018-11-01T05:25:46.230Z,3.23
2018-11-01T05:28:14.234Z,5.97
2018-11-01T05:30:42.307Z,8.00
2018-11-01T05:33:10.371Z,6.73
2018-11-01T05:35:38.587Z,9.10
2018-11-01T05:38:06.674Z,11.77
2018-11-01T05:40:34.723Z,8.13
2018-11-01T05:43:02.798Z,10.33
2018-11-01T05:45:30.867Z,21.93
2018-11-01T05:47:59.247Z,7.77
2018-11-01T05:50:27.417Z,4.97
2018-11-01T05:52:55.479Z,7.13
2018-11-01T05:55:23.655Z,6.27
2018-11-01T05:57:52.039Z,8.83
2018-11-01T06:00:20.181Z,5.93
2018-11-01T06:02:49.547Z,7.17
2018-11-01T06:05:17.647Z,6.27
2018-11-01T06:07:49.790Z,5.17
2018-11-01T06:10:18.310Z,14.85
2018-11-01T06:12:46.372Z,4.43
2018-11-01T06:15:14.435Z,16.03
2018-11-01T06:17:42.497Z,9.57
2018-11-01T06:20:11.164Z,10.33
2018-11-01T06:22:39.342Z,11.23
2018-11-01T06:25:08.023Z,8.23
2018-11-01T06:27:36.226Z,13.00
2018-11-01T06:30:06.376Z,18.93
2018-11-01T06:32:34.456Z,17.17
2018-11-01T06:35:04.601Z,7.23
2018-11-01T06:37:32.679Z,16.77
2018-11-01T06:40:00.752Z,14.27
2018-11-01T06:42:28.914Z,9.43
2018-11-01T06:44:57.026Z,8.30
2018-11-01T06:47:25.079Z,9.73
2018-11-01T06:49:53.139Z,9.10
2018-11-01T06:52:21.514Z,9.37
2018-11-01T06:54:49.966Z,9.27
2018-11-01T06:57:18.046Z,7.13
2018-11-01T06:59:46.142Z,12.30
2018-11-01T07:02:14.259Z,7.57
2018-11-01T07:04:42.307Z,7.40
2018-11-01T07:07:10.391Z,9.27
2018-11-01T07:09:38.463Z,8.70
2018-11-01T07:12:06.770Z,7.43
2018-11-01T07:14:34.935Z,7.53
2018-11-01T07:17:03.084Z,7.57
2018-11-01T07:19:31.111Z,5.90
2018-11-01T07:21:59.186Z,6.47
2018-11-01T07:24:27.265Z,4.53
2018-11-01T07:26:55.582Z,4.87
2018-11-01T07:29:23.650Z,5.97
2018-11-01T07:31:51.747Z,4.77
2018-11-01T07:34:19.819Z,8.57
2018-11-01T07:36:47.889Z,6.20
2018-11-01T07:39:15.968Z,5.70
2018-11-01T07:41:44.047Z,6.90
2018-11-01T07:44:12.143Z,4.10
2018-11-01T07:46:40.197Z,3.93
2018-11-01T07:49:08.467Z,4.03
2018-11-01T07:51:36.537Z,4.10
2018-11-01T07:54:05.051Z,6.33
2018-11-01T07:56:33.116Z,5.20
2018-11-01T07:59:01.183Z,5.93
2018-11-01T08:01:29.242Z,6.83
2018-11-01T08:03:57.602Z,3.37
2018-11-01T08:06:25.663Z,3.47
2018-11-01T08:08:53.735Z,6.30
2018-11-01T08:11:21.817Z,4.80
2018-11-01T08:13:49.882Z,3.57
2018-11-01T08:16:17.955Z,4.90
2018-11-01T08:18:46.069Z,5.37
2018-11-01T08:21:14.271Z,6.73
2018-11-01T08:23:42.219Z,5.33
2018-11-01T08:26:10.545Z,3.50
2018-11-01T08:28:38.607Z,5.87
2018-11-01T08:31:06.672Z,3.27
2018-11-01T08:33:34.747Z,4.90
2018-11-01T08:36:02.815Z,2.83
2018-11-01T08:38:30.887Z,5.83
2018-11-01T08:40:59.039Z,4.67
2018-11-01T08:43:27.047Z,4.60
2018-11-01T08:45:55.115Z,4.40
2018-11-01T08:48:23.170Z,3.70
2018-11-01T08:50:51.487Z,3.93
2018-11-01T08:53:19.560Z,2.57
2018-11-01T08:55:47.678Z,6.17
2018-11-01T08:58:16.124Z,3.33
2018-11-01T09:00:44.178Z,4.60
2018-11-01T09:03:12.238Z,3.20
2018-11-01T09:05:40.319Z,6.20
2018-11-01T09:08:08.458Z,2.33
2018-11-01T09:10:36.512Z,2.77
2018-11-01T09:13:04.629Z,4.07
2018-11-01T09:15:32.686Z,3.57
2018-11-01T09:18:00.766Z,3.03
2018-11-01T09:20:28.838Z,3.73
2018-11-01T09:22:56.903Z,3.53
2018-11-01T09:25:24.973Z,4.47
2018-11-01T09:27:53.027Z,4.90
2018-11-01T09:30:21.113Z,3.77
2018-11-01T09:32:49.206Z,4.47
2018-11-01T09:35:17.247Z,5.37
2018-11-01T09:37:45.562Z,3.07
2018-11-01T09:40:15.111Z,3.73
2018-11-01T09:42:43.786Z,2.20
2018-11-01T09:45:12.076Z,3.40
2018-11-01T09:47:40.442Z,3.30
2018-11-01T09:50:09.244Z,3.43
2018-11-01T09:52:37.498Z,1.77
2018-11-01T09:55:05.764Z,1.90
2018-11-01T09:57:33.950Z,3.13
2018-11-01T10:00:02.059Z,3.73
2018-11-01T10:02:30.139Z,1.67
2018-11-01T10:04:58.537Z,3.83
2018-11-01T10:07:26.591Z,2.97
2018-11-01T10:09:54.646Z,5.63
2018-11-01T10:12:22.730Z,2.50
2018-11-01T10:14:50.807Z,3.43
2018-11-01T10:17:19.234Z,3.67
2018-11-01T10:19:46.954Z,2.73
2018-11-01T10:22:15.090Z,4.07
2018-11-01T10:24:43.402Z,3.33
2018-11-01T10:27:19.517Z,1.93
2018-11-01T10:29:39.531Z,1.90
2018-11-01T10:32:07.629Z,3.33
2018-11-01T10:34:35.682Z,2.30
2018-11-01T10:37:03.747Z,2.00
2018-11-01T10:39:32.027Z,3.80
2018-11-01T10:42:00.122Z,3.63
2018-11-01T10:44:28.186Z,2.27
2018-11-01T10:46:56.254Z,3.67
2018-11-01T10:49:24.302Z,2.47
2018-11-01T10:51:52.371Z,2.73
2018-11-01T10:54:20.489Z,2.93
2018-11-01T10:56:48.723Z,1.97
2018-11-01T10:59:17.390Z,2.97
2018-11-01T11:01:50.886Z,4.37
2018-11-01T11:04:18.942Z,1.63
2018-11-01T11:06:47.009Z,4.03
2018-11-01T11:09:15.087Z,2.57
2018-11-01T11:11:43.183Z,2.63
2018-11-01T11:14:11.246Z,2.27
2018-11-01T11:16:39.322Z,2.33
2018-11-01T11:19:07.541Z,3.40
2018-11-01T11:21:35.695Z,2.63
2018-11-01T11:24:03.802Z,2.63
2018-11-01T11:26:31.850Z,2.83
2018-11-01T11:29:00.035Z,2.97
2018-11-01T11:31:28.094Z,3.10
2018-11-01T11:33:56.397Z,2.00
2018-11-01T11:36:24.458Z,1.93
2018-11-01T11:38:52.926Z,3.13
2018-11-01T11:41:21.008Z,1.53
2018-11-01T11:43:49.099Z,1.73
2018-11-01T11:46:17.742Z,1.70
2018-11-01T11:48:46.322Z,1.33
2018-11-01T11:51:14.484Z,2.43
2018-11-01T11:53:42.622Z,2.17
2018-11-01T11:56:10.735Z,2.00
2018-11-01T11:58:38.807Z,1.97
2018-11-01T12:01:06.875Z,2.20
2018-11-01T12:03:35.020Z,2.00
2018-11-01T12:06:03.311Z,1.63
2018-11-01T12:08:31.282Z,1.50
2018-11-01T12:10:59.348Z,2.53
2018-11-01T12:13:27.417Z,1.50
2018-11-01T12:15:55.499Z,2.97
2018-11-01T12:18:23.586Z,2.90
2018-11-01T12:20:51.658Z,3.83
2018-11-01T12:23:20.011Z,3.13
2018-11-01T12:25:48.087Z,4.43
2018-11-01T12:28:16.166Z,3.00
2018-11-01T12:30:44.322Z,3.60
2018-11-01T12:33:12.404Z,5.13
2018-11-01T12:35:40.588Z,2.93
2018-11-01T12:38:08.602Z,2.93
2018-11-01T12:40:36.667Z,6.07
2018-11-01T12:43:05.490Z,3.83
2018-11-01T12:45:33.569Z,6.00
2018-11-01T12:48:01.665Z,2.97
2018-11-01T12:50:29.734Z,5.03
2018-11-01T12:52:57.795Z,4.17
2018-11-01T12:55:26.163Z,4.33
2018-11-01T12:57:54.230Z,6.00
2018-11-01T13:00:22.298Z,3.17
2018-11-01T13:02:50.366Z,6.13
2018-11-01T13:05:18.522Z,10.87
2018-11-01T13:07:46.607Z,193.33
2018-11-01T13:10:14.696Z,523.77
2018-11-01T13:12:43.011Z,410.80
2018-11-01T13:15:11.970Z,305.97
2018-11-01T13:17:40.310Z,590.57
2018-11-01T13:20:09.028Z,66.77
2018-11-01T13:22:37.170Z,38.00
2018-11-01T13:25:06.238Z,24.03
2018-11-01T13:27:34.329Z,21.37
2018-11-01T13:30:02.502Z,24.67
2018-11-01T13:32:31.450Z,25.67
2018-11-01T13:34:59.680Z,29.00
2018-11-01T13:37:27.870Z,31.57
2018-11-01T13:39:56.151Z,21.83
2018-11-01T13:42:24.020Z,24.53
2018-11-01T13:44:52.075Z,23.40
2018-11-01T13:47:20.253Z,28.07
2018-11-01T13:49:48.335Z,27.53
2018-11-01T13:52:16.434Z,24.87
2018-11-01T13:54:44.711Z,23.20
2018-11-01T13:57:13.022Z,29.13
2018-11-01T13:59:41.094Z,23.77
2018-11-01T14:02:09.159Z,27.77
2018-11-01T14:04:37.234Z,21.77
2018-11-01T14:07:05.795Z,23.70
2018-11-01T14:09:33.880Z,23.50
2018-11-01T14:12:01.942Z,23.43
2018-11-01T14:14:30.472Z,27.30
2018-11-01T14:16:58.078Z,19.37
2018-11-01T14:19:26.157Z,20.13
2018-11-01T14:21:54.219Z,20.57
2018-11-01T14:24:22.314Z,19.00
2018-11-01T14:26:50.638Z,20.87
2018-11-01T14:29:18.711Z,14.73
2018-11-01T14:31:46.770Z,16.50
2018-11-01T14:34:14.848Z,14.60
2018-11-01T14:36:42.901Z,18.03
2018-11-01T14:39:11.998Z,18.57
2018-11-01T14:41:40.122Z,16.07
2018-11-01T14:44:08.750Z,17.10
2018-11-01T14:46:37.034Z,18.93
2018-11-01T14:49:05.581Z,17.30
2018-11-01T14:51:33.633Z,14.07
2018-11-01T14:54:02.701Z,18.23
2018-11-01T14:56:30.985Z,16.00
2018-11-01T14:58:59.550Z,17.37
2018-11-01T15:01:26.194Z,18.77
2018-11-01T15:03:54.264Z,16.53
2018-11-01T15:06:22.417Z,21.17
2018-11-01T15:08:50.408Z,16.60
2018-11-01T15:11:18.491Z,19.50
2018-11-01T15:13:46.708Z,14.87
2018-11-01T15:16:14.762Z,14.90
2018-11-01T15:18:42.835Z,15.00
2018-11-01T15:21:10.910Z,14.07
2018-11-01T15:23:38.994Z,23.03
2018-11-01T15:26:07.121Z,16.60
2018-11-01T15:28:35.118Z,16.77
2018-11-01T15:31:03.195Z,22.40
2018-11-01T15:33:31.342Z,20.10
2018-11-01T15:35:59.339Z,13.93
2018-11-01T15:38:27.414Z,16.53
2018-11-01T15:40:59.432Z,14.70
2018-11-01T15:43:27.543Z,19.23
2018-11-01T15:45:55.635Z,15.00
2018-11-01T15:48:24.136Z,14.13
2018-11-01T15:50:52.159Z,16.60
2018-11-01T15:53:20.239Z,15.80
2018-11-01T15:55:48.322Z,19.17
2018-11-01T15:58:16.499Z,17.10
2018-11-01T16:00:44.686Z,18.93
2018-11-01T16:03:12.985Z,16.37
2018-11-01T16:05:41.006Z,23.73
2018-11-01T16:08:09.082Z,17.70
2018-11-01T16:10:37.151Z,19.07
2018-11-01T16:13:05.252Z,28.60
2018-11-01T16:15:33.390Z,18.30
2018-11-01T16:18:01.574Z,13.33
2018-11-01T16:20:29.634Z,12.67
2018-11-01T16:22:57.710Z,20.70
2018-11-01T16:25:25.770Z,21.43
2018-11-01T16:27:53.846Z,11.27
2018-11-01T16:30:22.248Z,14.33
2018-11-01T16:32:50.327Z,15.73
2018-11-01T16:35:18.407Z,16.33
2018-11-01T16:37:46.486Z,16.30
2018-11-01T16:40:14.586Z,11.50
2018-11-01T16:42:42.862Z,12.90
2018-11-01T16:45:13.252Z,10.70
2018-11-01T16:47:41.465Z,16.57
2018-11-01T16:50:10.169Z,14.00
2018-11-01T16:52:38.955Z,17.50
2018-11-01T16:55:07.066Z,11.80
2018-11-01T16:57:35.138Z,13.90
2018-11-01T17:00:03.432Z,17.40
2018-11-01T17:02:31.563Z,17.50
2018-11-01T17:04:59.651Z,16.67
2018-11-01T17:07:27.707Z,20.83
2018-11-01T17:09:55.775Z,19.83
2018-11-01T17:12:23.856Z,13.70
2018-11-01T17:14:51.945Z,16.43
2018-11-01T17:17:20.076Z,14.20
2018-11-01T17:19:48.135Z,12.20
2018-11-01T17:22:16.198Z,12.47
2018-11-01T17:24:44.321Z,13.43
2018-11-01T17:27:12.332Z,16.20
2018-11-01T17:29:40.398Z,17.77
2018-11-01T17:32:08.462Z,15.87
2018-11-01T17:34:36.546Z,13.60
2018-11-01T17:37:04.878Z,10.73
2018-11-01T17:39:32.956Z,17.47
2018-11-01T17:42:01.023Z,15.83
2018-11-01T17:44:29.123Z,13.40
2018-11-01T17:46:57.340Z,17.47
2018-11-01T17:49:25.399Z,16.50
2018-11-01T17:51:54.101Z,18.97
2018-11-01T17:54:22.150Z,16.77
2018-11-01T17:56:50.219Z,15.90
2018-11-01T17:59:18.284Z,15.53
2018-11-01T18:01:46.373Z,15.77
2018-11-01T18:04:14.423Z,15.07
2018-11-01T18:06:42.530Z,17.73
2018-11-01T18:09:12.822Z,17.87
2018-11-01T18:11:40.914Z,14.50
2018-11-01T18:14:09.095Z,12.03
2018-11-01T18:16:37.502Z,13.73
2018-11-01T18:19:05.648Z,13.90
2018-11-01T18:21:33.764Z,12.90
2018-11-01T18:24:01.831Z,14.67
2018-11-01T18:26:30.000Z,10.67
2018-11-01T18:28:58.143Z,12.10
2018-11-01T18:31:26.605Z,12.90
2018-11-01T18:33:54.651Z,13.50
2018-11-01T18:36:22.735Z,16.50
2018-11-01T18:38:50.793Z,10.43
2018-11-01T18:41:18.858Z,8.93
2018-11-01T18:43:46.947Z,18.03
2018-11-01T18:46:15.019Z,20.63
2018-11-01T18:48:43.495Z,14.27
2018-11-01T18:51:11.659Z,15.83
2018-11-01T18:53:39.743Z,13.07
2018-11-01T18:56:07.814Z,9.40
2018-11-01T18:58:35.882Z,9.90
2018-11-01T19:01:03.931Z,9.90
2018-11-01T19:03:32.657Z,13.27
2018-11-01T19:06:01.661Z,12.97
2018-11-01T19:08:29.761Z,10.47
2018-11-01T19:10:57.815Z,11.40
2018-11-01T19:13:26.161Z,13.33
2018-11-01T19:15:54.198Z,13.60
2018-11-01T19:18:22.315Z,16.67
2018-11-01T19:20:50.386Z,12.37
2018-11-01T19:23:18.518Z,16.47
2018-11-01T19:25:46.582Z,9.40
2018-11-01T19:28:14.667Z,10.20
2018-11-01T19:30:42.742Z,12.40
2018-11-01T19:33:10.806Z,13.80
2018-11-01T19:35:38.862Z,14.67
2018-11-01T19:38:06.997Z,16.30
2018-11-01T19:40:35.127Z,10.50
2018-11-01T19:43:03.170Z,12.17
2018-11-01T19:45:31.202Z,12.43
2018-11-01T19:47:59.288Z,10.63
2018-11-01T19:50:27.352Z,9.67
2018-11-01T19:52:55.421Z,9.17
2018-11-01T19:55:23.485Z,8.00
2018-11-01T19:57:51.766Z,13.10
2018-11-01T20:00:20.058Z,11.73
2018-11-01T20:02:48.628Z,10.33
2018-11-01T20:05:16.650Z,12.07
2018-11-01T20:07:44.711Z,9.87
2018-11-01T20:10:13.914Z,11.90
2018-11-01T20:12:42.198Z,7.77
2018-11-01T20:15:10.578Z,9.23
2018-11-01T20:17:38.643Z,12.23
2018-11-01T20:20:08.234Z,12.57
2018-11-01T20:22:36.296Z,7.90
2018-11-01T20:25:04.972Z,10.50
2018-11-01T20:27:33.133Z,8.27
2018-11-01T20:30:01.426Z,7.73
2018-11-01T20:32:29.483Z,8.00
2018-11-01T20:34:57.564Z,9.97
2018-11-01T20:37:25.979Z,7.13
2018-11-01T20:39:54.046Z,6.10
2018-11-01T20:42:22.124Z,11.03
2018-11-01T20:44:50.203Z,11.40
2018-11-01T20:47:18.271Z,8.37
2018-11-01T20:49:46.355Z,9.57
2018-11-01T20:52:14.426Z,11.00
2018-11-01T20:54:42.491Z,6.97
2018-11-01T20:57:10.590Z,8.40
2018-11-01T20:59:38.635Z,9.20
2018-11-01T21:02:06.721Z,7.57
2018-11-01T21:04:35.134Z,10.13
2018-11-01T21:07:03.207Z,8.37
2018-11-01T21:09:31.275Z,6.33
2018-11-01T21:11:59.523Z,6.10
2018-11-01T21:14:27.447Z,8.57
2018-11-01T21:16:55.588Z,5.63
2018-11-01T21:19:23.843Z,8.17
2018-11-01T21:21:51.928Z,9.07
2018-11-01T21:24:19.999Z,8.77
2018-11-01T21:26:48.068Z,12.43
2018-11-01T21:29:16.204Z,8.83
2018-11-01T21:31:44.262Z,10.80
2018-11-01T21:34:12.355Z,9.13
2018-11-01T21:36:40.456Z,10.67
2018-11-01T21:39:08.844Z,10.73
2018-11-01T21:41:37.027Z,11.60
2018-11-01T21:44:05.119Z,11.90
2018-11-01T21:46:33.195Z,9.30
2018-11-01T21:49:01.262Z,10.57
2018-11-01T21:51:29.335Z,8.47
2018-11-01T21:53:57.561Z,16.43
2018-11-01T21:56:25.742Z,9.43
2018-11-01T21:58:53.802Z,7.83
2018-11-01T22:01:21.879Z,7.17
2018-11-01T22:03:49.948Z,6.80
2018-11-01T22:06:18.080Z,8.57
2018-11-01T22:08:46.142Z,9.57
2018-11-01T22:11:14.201Z,9.43
2018-11-01T22:13:42.258Z,7.23
2018-11-01T22:16:10.350Z,7.43
2018-11-01T22:18:38.414Z,10.43
2018-11-01T22:21:06.502Z,10.23
2018-11-01T22:23:34.589Z,8.07
2018-11-01T22:26:02.729Z,7.83
2018-11-01T22:28:30.835Z,7.73
2018-11-01T22:30:58.883Z,7.80
2018-11-01T22:33:26.950Z,7.27
2018-11-01T22:35:55.003Z,7.83
2018-11-01T22:38:23.066Z,7.00
2018-11-01T22:40:51.153Z,7.77
2018-11-01T22:43:19.206Z,8.97
2018-11-01T22:45:47.287Z,7.40
2018-11-01T22:48:15.362Z,7.93
2018-11-01T22:50:43.426Z,8.87
2018-11-01T22:53:11.496Z,9.60
2018-11-01T22:55:39.816Z,9.33
2018-11-01T22:58:07.899Z,7.63
2018-11-01T23:00:40.231Z,7.87
2018-11-01T23:03:08.326Z,8.23
2018-11-01T23:05:36.395Z,6.67
2018-11-01T23:08:04.463Z,8.70
2018-11-01T23:10:32.543Z,7.63
2018-11-01T23:13:00.644Z,10.47
2018-11-01T23:15:28.706Z,11.13
2018-11-01T23:17:56.794Z,7.00
2018-11-01T23:20:24.854Z,7.77
2018-11-01T23:22:52.936Z,7.03
2018-11-01T23:25:21.009Z,8.83
2018-11-01T23:27:49.084Z,6.07
2018-11-01T23:30:17.142Z,8.87
2018-11-01T23:32:45.317Z,8.80
2018-11-01T23:35:13.355Z,4.40
2018-11-01T23:37:47.024Z,6.07
2018-11-01T23:40:20.542Z,10.47
2018-11-01T23:42:54.130Z,5.43
2018-11-01T23:45:27.691Z,6.83
2018-11-01T23:48:00.082Z,6.27
2018-11-01T23:50:38.241Z,7.47
2018-11-01T23:53:09.911Z,8.00
2018-11-01T23:55:38.035Z,8.60
2018-11-01T23:58:06.124Z,4.83
